createdAt,value
2023-04-25T00:00:56.438Z,6.30
2023-04-25T00:03:23.640Z,7.30
2023-04-25T00:05:51.509Z,6.23
2023-04-25T00:08:18.579Z,6.93
2023-04-25T00:10:45.316Z,7.20
2023-04-25T00:13:12.552Z,6.27
2023-04-25T00:15:39.867Z,6.60
2023-04-25T00:18:07.429Z,7.33
2023-04-25T00:20:34.218Z,6.33
2023-04-25T00:23:00.875Z,7.30
2023-04-25T00:25:27.797Z,6.80
2023-04-25T00:27:54.495Z,6.63
2023-04-25T00:30:21.180Z,6.17
2023-04-25T00:32:47.988Z,6.53
2023-04-25T00:35:14.629Z,6.67
2023-04-25T00:37:41.616Z,6.83
2023-04-25T00:40:08.971Z,7.43
2023-04-25T00:42:37.859Z,6.53
2023-04-25T00:45:06.841Z,7.30
2023-04-25T00:47:34.363Z,7.10
2023-04-25T00:50:01.147Z,7.60
2023-04-25T00:52:28.150Z,7.57
2023-04-25T00:54:55.199Z,7.70
2023-04-25T00:57:21.856Z,8.07
2023-04-25T00:59:49.369Z,7.73
2023-04-25T01:02:16.478Z,8.27
2023-04-25T01:04:43.256Z,7.53
2023-04-25T01:07:11.099Z,7.90
2023-04-25T01:09:37.897Z,7.87
2023-04-25T01:12:04.874Z,7.80
2023-04-25T01:14:31.727Z,8.40
2023-04-25T01:16:59.465Z,8.87
2023-04-25T01:19:26.385Z,8.17
2023-04-25T01:21:53.208Z,8.53
2023-04-25T01:24:20.026Z,9.33
2023-04-25T01:26:50.857Z,7.97
2023-04-25T01:29:21.533Z,8.37
2023-04-25T01:31:48.303Z,8.33
2023-04-25T01:34:15.050Z,8.33
2023-04-25T01:36:41.960Z,6.47
2023-04-25T01:39:11.891Z,6.70
2023-04-25T01:41:38.870Z,7.07
2023-04-25T01:44:05.904Z,7.17
2023-04-25T01:46:34.831Z,6.50
2023-04-25T01:49:01.979Z,6.10
2023-04-25T01:51:29.023Z,5.00
2023-04-25T01:53:56.269Z,5.00
2023-04-25T01:56:22.986Z,5.90
2023-04-25T01:58:50.315Z,4.80
2023-04-25T02:01:17.091Z,5.13
2023-04-25T02:03:44.423Z,5.10
2023-04-25T02:06:11.551Z,5.63
2023-04-25T02:08:38.570Z,6.27
2023-04-25T02:11:05.307Z,5.10
2023-04-25T02:13:32.010Z,5.27
2023-04-25T02:15:58.897Z,6.07
2023-04-25T02:18:27.373Z,6.17
2023-04-25T02:20:54.188Z,5.47
2023-04-25T02:23:21.157Z,5.77
2023-04-25T02:25:48.030Z,6.10
2023-04-25T02:28:14.727Z,5.87
2023-04-25T02:30:41.740Z,6.33
2023-04-25T02:33:08.544Z,5.87
2023-04-25T02:35:35.297Z,5.40
2023-04-25T02:38:02.055Z,5.47
2023-04-25T02:40:28.821Z,6.07
2023-04-25T02:42:55.488Z,6.50
2023-04-25T02:45:22.538Z,6.80
2023-04-25T02:47:49.295Z,6.37
2023-04-25T02:50:15.980Z,5.57
2023-04-25T02:52:42.642Z,6.30
2023-04-25T02:55:09.907Z,5.83
2023-04-25T02:57:36.676Z,5.93
2023-04-25T03:00:05.802Z,7.10
2023-04-25T03:02:32.553Z,5.50
2023-04-25T03:04:59.477Z,5.30
2023-04-25T03:07:26.236Z,6.40
2023-04-25T03:09:53.335Z,5.57
2023-04-25T03:12:21.059Z,6.53
2023-04-25T03:14:47.975Z,6.47
2023-04-25T03:17:14.793Z,6.73
2023-04-25T03:19:41.577Z,6.63
2023-04-25T03:22:08.340Z,6.00
2023-04-25T03:24:34.978Z,6.00
2023-04-25T03:27:01.686Z,6.23
2023-04-25T03:29:29.961Z,6.63
2023-04-25T03:31:56.676Z,6.67
2023-04-25T03:34:23.439Z,5.67
2023-04-25T03:36:50.358Z,6.10
2023-04-25T03:39:17.066Z,5.70
2023-04-25T03:41:43.766Z,5.80
2023-04-25T03:44:10.586Z,6.00
2023-04-25T03:46:37.265Z,6.07
2023-04-25T03:49:04.321Z,6.20
2023-04-25T03:51:32.299Z,6.23
2023-04-25T03:53:59.254Z,5.70
2023-04-25T03:56:25.971Z,5.90
2023-04-25T03:58:53.252Z,5.77
2023-04-25T04:01:21.100Z,5.90
2023-04-25T04:03:48.916Z,6.37
2023-04-25T04:06:16.064Z,5.13
2023-04-25T04:08:42.724Z,5.87
2023-04-25T04:11:09.451Z,6.23
2023-04-25T04:13:36.620Z,5.53
2023-04-25T04:16:16.593Z,5.97
2023-04-25T04:18:47.487Z,5.53
2023-04-25T04:21:34.589Z,5.50
2023-04-25T04:24:21.464Z,5.30
2023-04-25T04:26:48.617Z,6.00
2023-04-25T04:29:22.253Z,5.60
2023-04-25T04:32:09.779Z,5.23
2023-04-25T04:34:37.158Z,5.87
2023-04-25T04:37:04.088Z,5.53
2023-04-25T04:39:31.025Z,5.30
2023-04-25T04:41:57.790Z,5.43
2023-04-25T04:44:24.554Z,5.03
2023-04-25T04:46:51.722Z,5.13
2023-04-25T04:49:18.617Z,5.70
2023-04-25T04:51:45.696Z,5.70
2023-04-25T04:54:12.391Z,6.13
2023-04-25T04:56:39.363Z,5.30
2023-04-25T04:59:06.074Z,5.00
2023-04-25T05:01:32.840Z,5.33
2023-04-25T05:04:03.790Z,5.47
2023-04-25T05:06:32.220Z,4.70
2023-04-25T05:08:59.243Z,4.93
2023-04-25T05:11:26.322Z,5.50
2023-04-25T05:13:54.117Z,5.60
2023-04-25T05:16:21.536Z,5.57
2023-04-25T05:18:48.845Z,4.67
2023-04-25T05:21:15.567Z,5.00
2023-04-25T05:23:42.205Z,6.13
2023-04-25T05:26:14.751Z,5.43
2023-04-25T05:28:42.846Z,5.23
2023-04-25T05:31:11.456Z,5.20
2023-04-25T05:33:38.320Z,5.17
2023-04-25T05:36:05.729Z,5.20
2023-04-25T05:38:34.604Z,5.53
2023-04-25T05:41:01.800Z,5.50
2023-04-25T05:43:28.563Z,5.47
2023-04-25T05:45:56.300Z,4.83
2023-04-25T05:48:23.126Z,5.30
2023-04-25T05:50:49.893Z,6.53
2023-04-25T05:53:16.666Z,4.50
2023-04-25T05:55:43.439Z,5.67
2023-04-25T05:58:10.166Z,6.23
2023-04-25T06:00:36.994Z,5.70
2023-04-25T06:03:04.035Z,4.97
2023-04-25T06:05:31.325Z,4.53
2023-04-25T06:07:58.803Z,4.30
2023-04-25T06:10:25.881Z,4.60
2023-04-25T06:12:53.655Z,5.23
2023-04-25T06:15:28.206Z,5.30
2023-04-25T06:17:57.290Z,4.30
2023-04-25T06:20:25.466Z,4.67
2023-04-25T06:22:55.648Z,4.77
2023-04-25T06:25:22.521Z,4.40
2023-04-25T06:27:49.308Z,4.37
2023-04-25T06:30:17.558Z,4.17
2023-04-25T06:32:44.335Z,4.67
2023-04-25T06:35:11.410Z,3.83
2023-04-25T06:37:38.807Z,4.07
2023-04-25T06:40:06.466Z,4.50
2023-04-25T06:42:33.542Z,4.07
2023-04-25T06:45:01.094Z,4.90
2023-04-25T06:47:27.963Z,3.80
2023-04-25T06:49:54.670Z,3.43
2023-04-25T06:52:21.310Z,3.70
2023-04-25T06:54:48.185Z,3.80
2023-04-25T06:57:14.815Z,3.20
2023-04-25T06:59:41.543Z,4.07
2023-04-25T07:02:08.395Z,3.17
2023-04-25T07:04:35.309Z,3.43
2023-04-25T07:07:03.809Z,3.30
2023-04-25T07:09:31.301Z,3.07
2023-04-25T07:11:58.213Z,3.50
2023-04-25T07:14:25.134Z,3.57
2023-04-25T07:16:51.829Z,3.17
2023-04-25T07:19:18.578Z,3.10
2023-04-25T07:21:45.259Z,3.10
2023-04-25T07:24:12.023Z,2.97
2023-04-25T07:26:38.773Z,2.83
2023-04-25T07:29:05.839Z,3.10
2023-04-25T07:31:32.601Z,3.60
2023-04-25T07:34:01.854Z,3.63
2023-04-25T07:36:28.986Z,3.47
2023-04-25T07:38:55.794Z,2.97
2023-04-25T07:41:22.547Z,3.00
2023-04-25T07:43:49.772Z,3.60
2023-04-25T07:46:16.573Z,3.33
2023-04-25T07:48:43.355Z,3.03
2023-04-25T07:51:10.161Z,3.83
2023-04-25T07:53:38.770Z,3.03
2023-04-25T07:56:05.910Z,3.90
2023-04-25T07:58:32.673Z,3.20
2023-04-25T08:00:59.447Z,3.60
2023-04-25T08:03:26.321Z,3.50
2023-04-25T08:05:53.383Z,3.77
2023-04-25T08:08:20.517Z,3.53
2023-04-25T08:10:49.117Z,3.50
2023-04-25T08:13:16.043Z,2.90
2023-04-25T08:15:42.744Z,3.03
2023-04-25T08:18:09.902Z,3.40
2023-04-25T08:20:37.035Z,3.27
2023-04-25T08:23:03.835Z,3.17
2023-04-25T08:25:30.577Z,3.37
2023-04-25T08:27:58.209Z,3.53
2023-04-25T08:30:24.949Z,2.93
2023-04-25T08:32:52.123Z,2.90
2023-04-25T08:35:19.219Z,3.00
2023-04-25T08:37:45.993Z,2.93
2023-04-25T08:40:15.891Z,2.77
2023-04-25T08:42:43.670Z,3.07
2023-04-25T08:45:11.306Z,2.57
2023-04-25T08:47:41.031Z,2.40
2023-04-25T08:50:08.185Z,2.70
2023-04-25T08:52:45.762Z,2.20
2023-04-25T08:55:14.245Z,2.70
2023-04-25T08:57:43.903Z,3.00
2023-04-25T09:00:13.661Z,2.17
2023-04-25T09:02:41.119Z,2.33
2023-04-25T09:05:11.088Z,2.50
2023-04-25T09:07:37.866Z,2.43
2023-04-25T09:10:04.897Z,2.40
2023-04-25T09:12:32.890Z,2.10
2023-04-25T09:15:11.895Z,2.77
2023-04-25T09:17:41.612Z,2.60
2023-04-25T09:20:09.660Z,2.60
2023-04-25T09:22:37.612Z,2.43
2023-04-25T09:25:12.323Z,2.07
2023-04-25T09:27:52.193Z,2.03
2023-04-25T09:30:19.230Z,2.40
2023-04-25T09:32:46.677Z,2.37
2023-04-25T09:35:24.757Z,2.07
2023-04-25T09:37:51.710Z,1.83
2023-04-25T09:40:19.628Z,1.90
2023-04-25T09:42:46.483Z,1.73
2023-04-25T09:45:16.255Z,2.33
2023-04-25T09:47:45.042Z,2.13
2023-04-25T09:50:16.997Z,2.60
2023-04-25T09:52:44.513Z,2.33
2023-04-25T09:55:11.494Z,2.07
2023-04-25T09:57:41.840Z,2.47
2023-04-25T10:00:13.285Z,2.33
2023-04-25T10:02:43.707Z,2.77
2023-04-25T10:05:11.866Z,2.43
2023-04-25T10:07:39.865Z,2.63
2023-04-25T10:10:07.186Z,1.83
2023-04-25T10:12:34.996Z,1.90
2023-04-25T10:15:03.895Z,1.60
2023-04-25T10:17:32.673Z,2.03
2023-04-25T10:20:01.500Z,1.90
2023-04-25T10:22:35.330Z,2.07
2023-04-25T10:25:05.171Z,1.90
2023-04-25T10:27:32.772Z,1.67
2023-04-25T10:30:14.183Z,2.00
2023-04-25T10:32:43.155Z,2.10
2023-04-25T10:35:24.969Z,2.03
2023-04-25T10:38:04.872Z,2.03
2023-04-25T10:40:32.668Z,2.20
2023-04-25T10:43:38.842Z,2.60
2023-04-25T10:46:26.025Z,1.97
2023-04-25T10:48:56.910Z,1.77
2023-04-25T10:51:43.305Z,1.90
2023-04-25T10:54:21.180Z,1.87
2023-04-25T10:56:49.897Z,1.67
2023-04-25T10:59:19.331Z,1.97
2023-04-25T11:01:48.153Z,1.70
2023-04-25T11:04:37.073Z,1.93
2023-04-25T11:09:51.581Z,1.70
2023-04-25T11:12:18.717Z,1.90
2023-04-25T11:14:45.531Z,2.00
2023-04-25T11:17:12.871Z,1.63
2023-04-25T11:19:39.866Z,2.13
2023-04-25T11:22:07.899Z,3.00
2023-04-25T11:24:36.452Z,1.70
2023-04-25T11:27:04.978Z,1.60
2023-04-25T11:29:33.325Z,1.27
2023-04-25T11:32:02.056Z,1.30
2023-04-25T11:34:31.868Z,1.03
2023-04-25T11:36:59.482Z,1.27
2023-04-25T11:39:26.956Z,5.90
2023-04-25T11:41:54.383Z,1.83
2023-04-25T11:44:22.446Z,1.53
2023-04-25T11:46:49.341Z,1.50
2023-04-25T11:49:16.587Z,1.60
2023-04-25T11:51:44.861Z,1.50
2023-04-25T11:54:12.806Z,1.87
2023-04-25T11:56:46.616Z,2.00
2023-04-25T11:59:14.300Z,2.03
2023-04-25T12:01:50.601Z,1.63
2023-04-25T12:04:20.087Z,1.93
2023-04-25T12:06:49.492Z,1.27
2023-04-25T12:09:19.582Z,1.50
2023-04-25T12:11:53.720Z,1.20
2023-04-25T12:14:28.616Z,1.53
2023-04-25T12:17:03.749Z,1.23
2023-04-25T12:19:35.366Z,1.60
2023-04-25T12:22:21.221Z,1.60
2023-04-25T12:24:47.988Z,1.37
2023-04-25T12:27:21.042Z,1.40
2023-04-25T12:29:57.844Z,1.60
2023-04-25T12:32:24.966Z,1.90
2023-04-25T12:34:51.690Z,1.47
2023-04-25T12:37:18.525Z,1.40
2023-04-25T12:39:45.268Z,1.83
2023-04-25T12:42:14.971Z,2.27
2023-04-25T12:44:42.404Z,1.60
2023-04-25T12:47:09.520Z,1.77
2023-04-25T12:49:36.553Z,1.77
2023-04-25T12:52:03.307Z,1.83
2023-04-25T12:54:30.069Z,1.50
2023-04-25T12:56:57.410Z,1.63
2023-04-25T12:59:24.206Z,1.63
2023-04-25T13:01:50.956Z,2.23
2023-04-25T13:04:18.803Z,1.50
2023-04-25T13:06:45.811Z,1.50
2023-04-25T13:09:13.595Z,2.50
2023-04-25T13:11:42.038Z,1.50
2023-04-25T13:14:08.910Z,1.63
2023-04-25T13:16:35.807Z,1.50
2023-04-25T13:19:02.614Z,1.90
2023-04-25T13:21:33.501Z,1.70
2023-04-25T13:24:03.330Z,1.70
2023-04-25T13:26:30.317Z,1.60
2023-04-25T13:28:57.094Z,1.50
2023-04-25T13:31:23.771Z,1.73
2023-04-25T13:33:50.808Z,1.80
2023-04-25T13:36:17.793Z,1.80
2023-04-25T13:38:46.170Z,1.33
2023-04-25T13:41:17.145Z,1.83
2023-04-25T13:43:44.692Z,1.23
2023-04-25T13:46:29.988Z,1.60
2023-04-25T13:49:06.173Z,1.60
2023-04-25T13:51:38.642Z,1.60
2023-04-25T13:54:05.498Z,1.33
2023-04-25T13:56:32.398Z,1.30
2023-04-25T13:58:59.173Z,1.50
2023-04-25T14:01:26.043Z,1.10
2023-04-25T14:03:53.025Z,1.20
2023-04-25T14:06:23.886Z,1.40
2023-04-25T14:08:54.558Z,1.40
2023-04-25T14:11:21.365Z,1.30
2023-04-25T14:13:49.437Z,1.70
2023-04-25T14:16:17.561Z,1.23
2023-04-25T14:18:44.251Z,1.37
2023-04-25T14:21:11.115Z,1.47
2023-04-25T14:23:37.761Z,1.60
2023-04-25T14:26:04.571Z,1.40
2023-04-25T14:28:32.056Z,1.40
2023-04-25T14:30:58.851Z,1.57
2023-04-25T14:33:25.992Z,1.43
2023-04-25T14:35:52.903Z,1.67
2023-04-25T14:38:24.279Z,1.60
2023-04-25T14:40:51.142Z,1.10
2023-04-25T14:43:17.949Z,1.20
2023-04-25T14:45:44.750Z,1.30
2023-04-25T14:48:11.693Z,1.67
2023-04-25T14:50:38.482Z,1.40
2023-04-25T14:53:05.180Z,1.40
2023-04-25T14:55:31.894Z,1.67
2023-04-25T14:57:58.771Z,1.60
2023-04-25T15:00:26.388Z,1.40
2023-04-25T15:02:53.516Z,1.67
2023-04-25T15:05:21.183Z,1.23
2023-04-25T15:07:48.906Z,1.50
2023-04-25T15:10:17.098Z,1.70
2023-04-25T15:12:46.893Z,1.47
2023-04-25T15:15:19.837Z,1.70
2023-04-25T15:17:52.198Z,1.67
2023-04-25T15:20:18.960Z,1.60
2023-04-25T15:22:49.761Z,2.57
2023-04-25T15:25:20.713Z,1.87
2023-04-25T15:27:49.779Z,2.10
2023-04-25T15:30:17.991Z,1.97
2023-04-25T15:32:46.430Z,1.77
2023-04-25T15:35:13.938Z,2.03
2023-04-25T15:37:41.471Z,1.83
2023-04-25T15:40:12.222Z,1.77
2023-04-25T15:42:53.063Z,1.50
2023-04-25T15:45:24.230Z,1.80
2023-04-25T15:47:53.016Z,1.93
2023-04-25T15:50:20.149Z,1.40
2023-04-25T15:52:49.391Z,2.10
2023-04-25T15:55:17.573Z,2.10
2023-04-25T15:57:44.538Z,2.00
2023-04-25T16:00:13.356Z,1.70
2023-04-25T16:02:41.574Z,1.93
2023-04-25T16:05:09.275Z,2.27
2023-04-25T16:07:36.419Z,2.40
2023-04-25T16:10:03.897Z,2.17
2023-04-25T16:12:31.387Z,2.43
2023-04-25T16:14:58.461Z,2.40
2023-04-25T16:17:26.412Z,2.60
2023-04-25T16:19:53.103Z,2.93
2023-04-25T16:22:19.810Z,2.23
2023-04-25T16:24:46.577Z,2.73
2023-04-25T16:27:13.412Z,2.27
2023-04-25T16:29:40.110Z,2.00
2023-04-25T16:32:07.598Z,2.53
2023-04-25T16:34:34.339Z,2.73
2023-04-25T16:37:01.644Z,2.30
2023-04-25T16:39:28.296Z,2.57
2023-04-25T16:41:55.298Z,2.57
2023-04-25T16:44:22.098Z,1.80
2023-04-25T16:46:48.964Z,1.70
2023-04-25T16:49:15.984Z,1.67
2023-04-25T16:51:42.746Z,1.80
2023-04-25T16:54:09.415Z,1.80
2023-04-25T16:56:36.228Z,1.83
2023-04-25T16:59:02.890Z,1.83
2023-04-25T17:01:30.077Z,2.20
2023-04-25T17:03:56.995Z,2.53
2023-04-25T17:06:23.824Z,2.40
2023-04-25T17:08:51.090Z,2.10
2023-04-25T17:11:18.913Z,1.80
2023-04-25T17:13:46.012Z,1.80
2023-04-25T17:16:16.467Z,2.07
2023-04-25T17:18:44.054Z,1.90
2023-04-25T17:21:10.934Z,2.07
2023-04-25T17:23:37.720Z,2.00
2023-04-25T17:26:06.455Z,2.00
2023-04-25T17:28:33.126Z,2.00
2023-04-25T17:31:00.254Z,1.80
2023-04-25T17:33:27.276Z,2.20
2023-04-25T17:35:54.412Z,1.80
2023-04-25T17:38:21.720Z,2.23
2023-04-25T17:40:48.865Z,1.77
2023-04-25T17:43:15.771Z,2.10
2023-04-25T17:45:42.552Z,1.90
2023-04-25T17:48:09.409Z,1.60
2023-04-25T17:50:36.050Z,1.93
2023-04-25T17:53:06.064Z,2.00
2023-04-25T17:55:32.826Z,1.97
2023-04-25T17:57:59.444Z,2.00
2023-04-25T18:00:26.126Z,2.00
2023-04-25T18:02:53.023Z,1.63
2023-04-25T18:05:20.004Z,1.77
2023-04-25T18:07:46.697Z,2.00
2023-04-25T18:10:14.806Z,1.77
2023-04-25T18:12:41.648Z,1.60
2023-04-25T18:15:09.347Z,1.90
2023-04-25T18:20:31.477Z,2.50
2023-04-25T18:23:03.590Z,2.00
2023-04-25T18:25:31.946Z,1.60
2023-04-25T18:28:02.288Z,2.00
2023-04-25T18:30:38.128Z,1.83
2023-04-25T18:33:08.202Z,2.27
2023-04-25T18:35:45.114Z,2.20
2023-04-25T18:38:28.135Z,2.00
2023-04-25T18:41:18.385Z,2.20
2023-04-25T18:44:20.084Z,1.87
2023-04-25T18:46:47.740Z,2.40
2023-04-25T18:49:20.764Z,2.03
2023-04-25T18:51:49.590Z,2.00
2023-04-25T18:54:18.109Z,2.70
2023-04-25T18:56:46.124Z,2.33
2023-04-25T18:59:15.957Z,2.47
2023-04-25T19:01:44.125Z,2.63
2023-04-25T19:04:13.463Z,2.80
2023-04-25T19:07:00.187Z,2.30
2023-04-25T19:09:43.812Z,2.00
2023-04-25T19:12:19.682Z,2.37
2023-04-25T19:14:47.324Z,2.10
2023-04-25T19:17:16.653Z,2.10
2023-04-25T19:19:43.472Z,2.10
2023-04-25T19:22:10.791Z,2.27
2023-04-25T19:24:38.448Z,2.17
2023-04-25T19:27:07.122Z,2.10
2023-04-25T19:29:48.763Z,2.53
2023-04-25T19:32:24.768Z,1.90
2023-04-25T19:34:55.120Z,2.43
2023-04-25T19:37:23.917Z,2.37
2023-04-25T19:39:55.055Z,2.20
2023-04-25T19:42:27.510Z,2.30
2023-04-25T19:44:55.522Z,2.57
2023-04-25T19:47:23.482Z,2.73
2023-04-25T19:49:52.704Z,2.67
2023-04-25T19:52:20.571Z,2.43
2023-04-25T19:54:52.210Z,2.17
2023-04-25T19:57:19.534Z,2.30
2023-04-25T19:59:48.270Z,2.30
2023-04-25T20:02:16.379Z,2.30
2023-04-25T20:04:43.536Z,2.23
2023-04-25T20:07:10.768Z,2.73
2023-04-25T20:09:39.170Z,2.40
2023-04-25T20:12:06.871Z,2.53
2023-04-25T20:14:34.295Z,2.30
2023-04-25T20:17:01.798Z,2.03
2023-04-25T20:19:29.292Z,2.00
2023-04-25T20:21:58.105Z,2.20
2023-04-25T20:24:25.913Z,2.30
2023-04-25T20:26:52.875Z,2.40
2023-04-25T20:29:20.261Z,2.37
2023-04-25T20:31:51.562Z,2.07
2023-04-25T20:34:22.671Z,2.10
2023-04-25T20:36:50.956Z,2.03
2023-04-25T20:39:19.971Z,2.57
2023-04-25T20:41:47.892Z,2.63
2023-04-25T20:44:15.884Z,2.30
2023-04-25T20:46:45.380Z,2.50
2023-04-25T20:49:12.342Z,2.10
2023-04-25T20:51:39.642Z,2.77
2023-04-25T20:54:06.699Z,2.90
2023-04-25T20:56:35.731Z,2.40
2023-04-25T20:59:02.806Z,2.87
2023-04-25T21:01:30.180Z,2.97
2023-04-25T21:03:57.871Z,2.80
2023-04-25T21:06:25.066Z,2.83
2023-04-25T21:08:53.437Z,2.90
2023-04-25T21:11:20.537Z,3.10
2023-04-25T21:13:47.972Z,2.43
2023-04-25T21:16:14.692Z,2.57
2023-04-25T21:18:41.345Z,3.33
2023-04-25T21:21:08.652Z,2.77
2023-04-25T21:23:36.195Z,2.40
2023-04-25T21:26:02.955Z,2.30
2023-04-25T21:28:29.662Z,2.50
2023-04-25T21:30:56.953Z,2.73
2023-04-25T21:33:24.457Z,2.10
2023-04-25T21:35:51.101Z,2.50
2023-04-25T21:38:19.137Z,2.43
2023-04-25T21:40:46.129Z,2.47
2023-04-25T21:43:13.213Z,2.83
2023-04-25T21:46:02.136Z,3.33
2023-04-25T21:48:29.054Z,2.10
2023-04-25T21:50:56.261Z,2.93
2023-04-25T21:53:22.916Z,2.13
2023-04-25T21:55:49.639Z,2.90
2023-04-25T21:58:16.568Z,2.50
2023-04-25T22:00:44.460Z,3.13
2023-04-25T22:03:11.706Z,2.50
2023-04-25T22:05:38.582Z,2.20
2023-04-25T22:08:05.190Z,2.57
2023-04-25T22:10:32.041Z,2.90
2023-04-25T22:12:58.797Z,2.63
2023-04-25T22:15:25.728Z,2.30
2023-04-25T22:17:55.387Z,2.40
2023-04-25T22:20:26.375Z,2.57
2023-04-25T22:22:55.720Z,2.63
2023-04-25T22:25:22.715Z,2.70
2023-04-25T22:27:51.493Z,2.40
2023-04-25T22:30:18.501Z,2.27
2023-04-25T22:32:45.238Z,2.73
2023-04-25T22:35:12.177Z,2.50
2023-04-25T22:37:39.224Z,2.57
2023-04-25T22:40:07.213Z,2.87
2023-04-25T22:42:39.826Z,2.83
2023-04-25T22:45:10.987Z,3.27
2023-04-25T22:47:39.076Z,2.77
2023-04-25T22:50:08.533Z,2.30
2023-04-25T22:52:35.500Z,2.73
2023-04-25T22:55:05.260Z,3.00
2023-04-25T22:57:32.073Z,2.50
2023-04-25T22:59:58.905Z,2.77
2023-04-25T23:02:25.980Z,2.63
2023-04-25T23:04:54.023Z,2.73
2023-04-25T23:07:21.042Z,2.87
2023-04-25T23:09:47.818Z,2.60
2023-04-25T23:12:18.100Z,2.90
2023-04-25T23:14:49.130Z,3.03
2023-04-25T23:17:15.794Z,2.90
2023-04-25T23:19:42.444Z,3.40
2023-04-25T23:22:09.530Z,2.47
2023-04-25T23:24:39.164Z,2.70
2023-04-25T23:27:06.055Z,2.70
2023-04-25T23:29:34.203Z,3.10
2023-04-25T23:32:04.285Z,2.80
2023-04-25T23:34:31.901Z,2.57
2023-04-25T23:37:04.320Z,2.47
2023-04-25T23:39:31.277Z,3.30
2023-04-25T23:41:57.907Z,2.30
2023-04-25T23:44:24.630Z,3.00
2023-04-25T23:46:51.412Z,2.30
2023-04-25T23:49:18.094Z,2.77
2023-04-25T23:51:44.795Z,2.47
2023-04-25T23:54:11.521Z,2.70
2023-04-25T23:56:38.403Z,4.03
2023-04-25T23:59:05.054Z,3.00
